createdAt,value
2022-08-20T00:07:10.601Z,969.26
2022-08-20T00:17:09.765Z,969.48
2022-08-20T00:27:09.921Z,969.39
2022-08-20T00:37:10.089Z,969.58
2022-08-20T00:47:10.266Z,969.61
2022-08-20T00:57:10.431Z,969.68
2022-08-20T01:07:10.699Z,969.70
2022-08-20T01:17:10.752Z,969.64
2022-08-20T01:27:10.913Z,969.72
2022-08-20T01:37:11.075Z,969.75
2022-08-20T01:47:11.360Z,969.81
2022-08-20T01:57:11.411Z,969.84
2022-08-20T02:07:11.566Z,969.84
2022-08-20T02:17:11.727Z,970.06
2022-08-20T02:27:11.878Z,969.98
2022-08-20T02:37:12.051Z,969.91
2022-08-20T02:47:12.227Z,969.97
2022-08-20T02:57:12.409Z,969.96
2022-08-20T03:07:12.566Z,969.80
2022-08-20T03:17:12.723Z,969.78
2022-08-20T03:27:12.883Z,969.92
2022-08-20T03:37:13.062Z,969.80
2022-08-20T03:47:13.312Z,969.90
2022-08-20T03:57:13.385Z,970.02
2022-08-20T04:07:13.866Z,970.06
2022-08-20T04:17:13.697Z,969.97
2022-08-20T04:27:13.813Z,970.04
2022-08-20T04:37:16.831Z,970.13
2022-08-20T04:47:14.154Z,970.19
2022-08-20T04:57:14.330Z,970.21
2022-08-20T05:07:14.495Z,970.36
2022-08-20T05:17:14.892Z,970.51
2022-08-20T05:27:19.846Z,970.47
2022-08-20T05:37:16.021Z,970.62
2022-08-20T05:47:15.179Z,970.61
2022-08-20T05:57:15.333Z,970.66
2022-08-20T06:07:15.486Z,970.67
2022-08-20T06:17:15.645Z,970.63
2022-08-20T06:27:15.914Z,970.63
2022-08-20T06:37:15.985Z,970.61
2022-08-20T06:47:16.162Z,970.61
2022-08-20T06:57:16.317Z,970.60
2022-08-20T07:07:16.478Z,970.68
2022-08-20T07:17:16.627Z,970.71
2022-08-20T07:27:16.790Z,970.85
2022-08-20T07:37:16.961Z,970.94
2022-08-20T07:47:17.135Z,971.03
2022-08-20T07:57:17.295Z,971.02
2022-08-20T08:07:17.458Z,970.99
2022-08-20T08:17:17.617Z,970.93
2022-08-20T08:27:17.780Z,971.01
2022-08-20T08:37:17.955Z,970.96
2022-08-20T08:47:18.142Z,970.94
2022-08-20T08:57:18.302Z,970.99
2022-08-20T09:07:18.470Z,970.87
2022-08-20T09:17:18.658Z,970.84
2022-08-20T09:27:18.825Z,970.84
2022-08-20T09:37:19.006Z,970.80
2022-08-20T09:47:19.196Z,970.73
2022-08-20T09:57:19.355Z,970.62
2022-08-20T10:07:19.496Z,970.49
2022-08-20T10:17:19.665Z,970.59
2022-08-20T10:27:19.839Z,970.62
2022-08-20T10:37:20.013Z,970.56
2022-08-20T10:47:20.210Z,970.70
2022-08-20T10:57:20.445Z,970.82
2022-08-20T11:07:20.552Z,970.79
2022-08-20T11:17:20.743Z,971.02
2022-08-20T11:27:20.936Z,970.99
2022-08-20T11:37:21.137Z,971.00
2022-08-20T11:47:21.438Z,971.23
2022-08-20T11:57:21.507Z,971.40
2022-08-20T12:07:21.681Z,971.45
2022-08-20T12:17:21.837Z,971.34
2022-08-20T12:27:21.994Z,971.23
2022-08-20T12:37:22.164Z,971.21
2022-08-20T12:47:22.385Z,971.23
2022-08-20T12:57:22.506Z,971.10
2022-08-20T13:07:22.613Z,971.07
2022-08-20T13:17:27.381Z,971.00
2022-08-20T13:27:23.904Z,971.06
2022-08-20T13:37:25.371Z,970.99
2022-08-20T13:47:23.315Z,971.10
2022-08-20T13:57:23.513Z,971.10
2022-08-20T14:07:23.704Z,971.05
2022-08-20T14:17:23.916Z,971.06
2022-08-20T14:27:27.730Z,971.05
2022-08-20T14:37:25.282Z,970.95
2022-08-20T14:47:24.451Z,970.76
2022-08-20T14:57:24.618Z,970.71
2022-08-20T15:07:24.774Z,970.59
2022-08-20T15:17:24.976Z,970.46
2022-08-20T15:27:25.159Z,970.30
2022-08-20T15:37:25.331Z,970.44
2022-08-20T15:47:25.536Z,970.46
2022-08-20T15:57:25.716Z,970.49
2022-08-20T16:07:25.883Z,970.50
2022-08-20T16:17:26.177Z,970.49
2022-08-20T16:27:26.236Z,970.48
2022-08-20T16:37:26.408Z,970.59
2022-08-20T16:47:26.588Z,970.57
2022-08-20T16:57:26.754Z,970.65
2022-08-20T17:07:31.070Z,970.60
2022-08-20T17:17:28.084Z,970.60
2022-08-20T17:27:27.246Z,970.65
2022-08-20T17:37:27.457Z,970.60
2022-08-20T17:47:27.509Z,970.78
2022-08-20T17:57:27.689Z,970.71
2022-08-20T18:07:28.009Z,970.71
2022-08-20T18:17:28.079Z,970.85
2022-08-20T18:27:28.240Z,970.93
2022-08-20T18:37:28.413Z,970.89
2022-08-20T18:47:28.591Z,970.96
2022-08-20T18:57:28.762Z,971.05
2022-08-20T19:07:47.966Z,970.99
2022-08-20T19:17:31.019Z,971.12
2022-08-20T19:27:29.319Z,971.10
2022-08-20T19:37:43.157Z,971.21
2022-08-20T19:47:30.575Z,971.27
2022-08-20T19:57:29.732Z,971.34
2022-08-20T20:07:29.887Z,971.32
2022-08-20T20:17:30.064Z,971.36
2022-08-20T20:27:30.236Z,971.41
2022-08-20T20:37:48.743Z,971.41
2022-08-20T20:47:31.596Z,971.39
2022-08-20T20:57:34.264Z,971.40
2022-08-20T21:07:31.925Z,971.52
2022-08-20T21:17:31.111Z,971.47
2022-08-20T21:27:31.243Z,971.37
2022-08-20T21:37:31.422Z,971.48
2022-08-20T21:47:31.591Z,971.42
2022-08-20T21:57:31.754Z,971.43
2022-08-20T22:07:31.914Z,971.36
2022-08-20T22:17:32.069Z,971.46
2022-08-20T22:27:32.229Z,971.50
2022-08-20T22:37:32.368Z,971.54
2022-08-20T22:47:32.514Z,971.57
2022-08-20T22:57:34.180Z,971.42
2022-08-20T23:07:32.901Z,971.46
2022-08-20T23:17:33.065Z,971.47
2022-08-20T23:27:33.223Z,971.55
2022-08-20T23:37:33.402Z,971.39
2022-08-20T23:47:33.580Z,971.29
2022-08-20T23:57:33.749Z,971.35
